Terminal Aerodrome Forecast
Issued by NWS

Home | Current Version | Previous Version | Text Only | Print | Product List | Glossary On
Versions: 1 2 3 4 5 6 7 8 9 10 11 12 13 14 15 16 17 18
483
FTUS45 KABQ 020730 AAA
TAFSAF
TAF AMD
KSAF 020730Z 0208/0306 19007KT P6SM BKN019 OVC040
     FM021000 12007KT 6SM BR OVC015
      TEMPO 0210/0214 3SM BR
     FM021600 17008KT P6SM BKN035 BKN070
     FM022000 25007KT P6SM SCT050 SCT080=

USA.gov is the U.S. government's official web portal to all federal, state and local government web resources and services.